createdAt,value
2023-05-10T00:01:18.843Z,0.20
2023-05-10T00:02:52.291Z,0.20
2023-05-10T00:04:28.695Z,0.20
2023-05-10T00:06:02.065Z,0.20
2023-05-10T00:07:35.729Z,0.20
2023-05-10T00:09:08.907Z,0.20
2023-05-10T00:10:42.350Z,0.20
2023-05-10T00:12:15.771Z,0.20
2023-05-10T00:13:49.291Z,0.20
2023-05-10T00:15:22.870Z,0.20
2023-05-10T00:16:56.325Z,0.22
2023-05-10T00:18:29.391Z,0.10
2023-05-10T00:20:02.937Z,0.10
2023-05-10T00:21:36.081Z,0.20
2023-05-10T00:23:09.637Z,0.20
2023-05-10T00:24:42.741Z,0.20
2023-05-10T00:26:18.083Z,0.20
2023-05-10T00:27:58.549Z,0.20
2023-05-10T00:29:33.067Z,0.20
2023-05-10T00:31:06.097Z,0.20
2023-05-10T00:32:39.491Z,0.20
2023-05-10T00:34:12.583Z,0.20
2023-05-10T00:35:46.023Z,0.20
2023-05-10T00:37:19.249Z,0.20
2023-05-10T00:38:52.994Z,0.20
2023-05-10T00:40:26.286Z,0.20
2023-05-10T00:42:05.913Z,0.20
2023-05-10T00:43:39.397Z,0.20
2023-05-10T00:45:13.163Z,0.20
2023-05-10T00:46:46.734Z,0.20
2023-05-10T00:48:20.979Z,0.20
2023-05-10T00:49:54.383Z,0.20
2023-05-10T00:51:28.082Z,0.20
2023-05-10T00:53:02.972Z,0.20
2023-05-10T00:54:36.598Z,0.20
2023-05-10T00:56:09.910Z,0.20
2023-05-10T00:57:43.550Z,0.20
2023-05-10T00:59:20.426Z,0.20
2023-05-10T01:00:54.115Z,0.20
2023-05-10T01:02:27.511Z,0.20
2023-05-10T01:04:01.498Z,0.20
2023-05-10T01:05:34.793Z,0.10
2023-05-10T01:07:08.140Z,0.20
2023-05-10T01:08:42.193Z,0.20
2023-05-10T01:10:16.103Z,0.20
2023-05-10T01:11:50.789Z,0.20
2023-05-10T01:13:39.107Z,0.20
2023-05-10T01:15:17.709Z,0.20
2023-05-10T01:16:51.927Z,0.20
2023-05-10T01:18:25.692Z,0.20
2023-05-10T01:19:58.915Z,0.20
2023-05-10T01:21:45.737Z,0.20
2023-05-10T01:23:30.260Z,0.20
2023-05-10T01:25:15.336Z,0.20
2023-05-10T01:27:13.591Z,0.20
2023-05-10T01:29:35.585Z,0.20
2023-05-10T01:31:36.216Z,0.20
2023-05-10T01:33:20.048Z,0.20
2023-05-10T01:35:20.124Z,0.22
2023-05-10T01:36:59.234Z,0.20
2023-05-10T01:38:57.681Z,0.20
2023-05-10T01:40:37.905Z,0.20
2023-05-10T01:42:40.875Z,0.20
2023-05-10T01:44:33.045Z,0.20
2023-05-10T01:46:19.315Z,0.20
2023-05-10T01:48:11.736Z,0.20
2023-05-10T01:49:56.043Z,0.20
2023-05-10T01:51:37.678Z,0.20
2023-05-10T01:53:13.007Z,0.20
2023-05-10T01:55:01.929Z,0.30
2023-05-10T01:56:41.585Z,0.20
2023-05-10T01:58:24.460Z,0.20
2023-05-10T01:59:58.872Z,0.20
2023-05-10T02:01:33.267Z,0.20
2023-05-10T02:03:10.021Z,0.30
2023-05-10T02:04:46.524Z,0.20
2023-05-10T02:06:21.930Z,0.20
2023-05-10T02:07:55.793Z,0.20
2023-05-10T02:09:31.846Z,0.20
2023-05-10T02:11:06.681Z,0.20
2023-05-10T02:12:45.647Z,0.20
2023-05-10T02:14:20.565Z,0.20
2023-05-10T02:15:56.197Z,0.20
2023-05-10T02:17:32.148Z,0.20
2023-05-10T02:19:06.141Z,0.20
2023-05-10T02:20:41.169Z,0.20
2023-05-10T02:22:14.891Z,0.20
2023-05-10T02:23:52.528Z,0.20
2023-05-10T02:25:28.547Z,0.20
2023-05-10T02:27:03.995Z,0.20
2023-05-10T02:28:39.038Z,0.20
2023-05-10T02:30:14.543Z,0.20
2023-05-10T02:31:49.109Z,0.20
2023-05-10T02:33:23.625Z,0.20
2023-05-10T02:34:58.853Z,0.20
2023-05-10T02:36:32.817Z,0.20
2023-05-10T02:38:08.155Z,0.20
2023-05-10T02:39:45.238Z,0.20
2023-05-10T02:41:19.792Z,0.20
2023-05-10T02:42:56.131Z,0.20
2023-05-10T02:44:32.517Z,0.20
2023-05-10T02:46:06.029Z,0.20
2023-05-10T02:47:40.259Z,0.20
2023-05-10T02:49:14.018Z,0.20
2023-05-10T02:50:52.709Z,0.20
2023-05-10T02:52:32.681Z,0.20
2023-05-10T02:54:14.186Z,0.20
2023-05-10T02:55:53.431Z,0.20
2023-05-10T02:57:35.931Z,0.20
2023-05-10T02:59:09.255Z,0.20
2023-05-10T03:00:42.525Z,0.20
2023-05-10T03:02:15.851Z,0.20
2023-05-10T03:03:49.150Z,0.20
2023-05-10T03:05:22.819Z,0.20
2023-05-10T03:06:56.432Z,0.20
2023-05-10T03:08:30.831Z,0.20
2023-05-10T03:10:05.079Z,0.20
2023-05-10T03:11:42.977Z,0.20
2023-05-10T03:13:36.867Z,0.20
2023-05-10T03:15:21.774Z,0.20
2023-05-10T03:17:17.534Z,0.20
2023-05-10T03:19:14.263Z,0.20
2023-05-10T03:20:57.104Z,0.20
2023-05-10T03:22:33.951Z,0.10
2023-05-10T03:24:09.683Z,0.20
2023-05-10T03:25:45.183Z,0.20
2023-05-10T03:27:19.324Z,0.20
2023-05-10T03:28:54.015Z,0.20
2023-05-10T03:30:30.812Z,0.20
2023-05-10T03:32:04.258Z,0.17
2023-05-10T03:33:48.332Z,0.20
2023-05-10T03:35:25.135Z,0.15
2023-05-10T03:36:58.521Z,0.20
2023-05-10T03:38:33.832Z,0.17
2023-05-10T03:40:07.733Z,0.10
2023-05-10T03:41:43.164Z,0.20
2023-05-10T03:43:16.364Z,0.10
2023-05-10T03:44:50.902Z,0.17
2023-05-10T03:46:24.280Z,0.20
2023-05-10T03:47:58.334Z,0.10
2023-05-10T03:49:31.979Z,0.10
2023-05-10T03:51:05.860Z,0.10
2023-05-10T03:52:40.556Z,0.10
2023-05-10T03:54:14.210Z,0.10
2023-05-10T03:55:47.847Z,0.20
2023-05-10T03:57:21.023Z,0.10
2023-05-10T03:58:54.542Z,0.10
2023-05-10T04:00:27.706Z,0.10
2023-05-10T04:02:02.336Z,0.10
2023-05-10T04:03:38.028Z,0.10
2023-05-10T04:05:12.702Z,0.10
2023-05-10T04:06:46.532Z,0.10
2023-05-10T04:08:20.058Z,0.10
2023-05-10T04:09:53.581Z,0.10
2023-05-10T04:11:29.417Z,0.10
2023-05-10T04:13:02.656Z,0.10
2023-05-10T04:14:35.998Z,0.10
2023-05-10T04:16:09.273Z,0.10
2023-05-10T04:17:42.549Z,0.10
2023-05-10T04:19:15.833Z,0.10
2023-05-10T04:20:49.001Z,0.10
2023-05-10T04:22:22.295Z,0.10
2023-05-10T04:23:55.628Z,0.10
2023-05-10T04:25:28.937Z,0.10
2023-05-10T04:27:02.265Z,0.10
2023-05-10T04:28:35.458Z,0.10
2023-05-10T04:30:09.149Z,0.10
2023-05-10T04:31:42.258Z,0.10
2023-05-10T04:33:16.034Z,0.10
2023-05-10T04:34:49.270Z,0.10
2023-05-10T04:36:22.688Z,0.10
2023-05-10T04:37:56.269Z,0.10
2023-05-10T04:39:29.452Z,0.10
2023-05-10T04:41:07.589Z,0.10
2023-05-10T04:42:43.031Z,0.10
2023-05-10T04:44:16.400Z,0.00
2023-05-10T04:45:49.829Z,0.10
2023-05-10T04:47:22.938Z,0.10
2023-05-10T04:48:56.339Z,0.10
2023-05-10T04:50:29.558Z,0.10
2023-05-10T04:52:02.952Z,0.10
2023-05-10T04:53:36.210Z,0.10
2023-05-10T04:55:11.164Z,0.10
2023-05-10T04:56:44.503Z,0.10
2023-05-10T04:58:17.994Z,0.00
2023-05-10T04:59:51.441Z,0.10
2023-05-10T05:01:24.911Z,0.10
2023-05-10T05:02:58.389Z,0.08
2023-05-10T05:04:32.418Z,0.08
2023-05-10T05:06:05.795Z,0.00
2023-05-10T05:07:41.651Z,0.10
2023-05-10T05:09:14.860Z,0.00
2023-05-10T05:10:51.486Z,0.10
2023-05-10T05:12:24.988Z,0.08
2023-05-10T05:14:00.465Z,0.00
2023-05-10T05:15:33.718Z,0.10
2023-05-10T05:17:07.292Z,0.10
2023-05-10T05:18:41.023Z,0.00
2023-05-10T05:20:14.779Z,0.08
2023-05-10T05:21:48.123Z,0.10
2023-05-10T05:23:22.255Z,0.10
2023-05-10T05:24:56.127Z,0.10
2023-05-10T05:26:29.310Z,0.10
2023-05-10T05:28:03.001Z,0.10
2023-05-10T05:29:36.447Z,0.10
2023-05-10T05:31:09.978Z,0.10
2023-05-10T05:32:43.621Z,0.10
2023-05-10T05:34:16.784Z,0.10
2023-05-10T05:35:52.070Z,0.10
2023-05-10T05:37:25.774Z,0.10
2023-05-10T05:38:59.324Z,0.10
2023-05-10T05:40:32.596Z,0.10
2023-05-10T05:42:06.574Z,0.10
2023-05-10T05:43:39.809Z,0.10
2023-05-10T05:45:15.018Z,0.10
2023-05-10T05:46:48.263Z,0.10
2023-05-10T05:48:21.740Z,0.10
2023-05-10T05:49:55.255Z,0.10
2023-05-10T05:51:28.453Z,0.15
2023-05-10T05:53:01.625Z,0.10
2023-05-10T05:54:35.755Z,0.10
2023-05-10T05:56:09.420Z,0.10
2023-05-10T05:57:42.899Z,0.10
2023-05-10T05:59:16.040Z,0.10
2023-05-10T06:00:49.869Z,0.10
2023-05-10T06:02:23.247Z,0.10
2023-05-10T06:03:56.635Z,0.10
2023-05-10T06:05:29.994Z,0.10
2023-05-10T06:07:03.273Z,0.10
2023-05-10T06:08:36.712Z,0.10
2023-05-10T06:10:11.121Z,0.10
2023-05-10T06:11:44.199Z,0.10
2023-05-10T06:13:17.729Z,0.10
2023-05-10T06:14:50.973Z,0.20
2023-05-10T06:16:25.000Z,0.10
2023-05-10T06:17:58.239Z,0.10
2023-05-10T06:19:32.121Z,0.10
2023-05-10T06:21:05.452Z,0.10
2023-05-10T06:22:38.525Z,0.10
2023-05-10T06:24:11.711Z,0.10
2023-05-10T06:25:45.191Z,0.10
2023-05-10T06:27:18.600Z,0.10
2023-05-10T06:28:51.929Z,0.10
2023-05-10T06:30:30.369Z,0.10
2023-05-10T06:32:04.583Z,0.10
2023-05-10T06:33:37.938Z,0.10
2023-05-10T06:35:11.472Z,0.10
2023-05-10T06:36:44.595Z,0.10
2023-05-10T06:38:17.976Z,0.10
2023-05-10T06:39:51.024Z,0.10
2023-05-10T06:41:25.172Z,0.10
2023-05-10T06:42:58.602Z,0.10
2023-05-10T06:44:32.127Z,0.10
2023-05-10T06:46:05.177Z,0.10
2023-05-10T06:47:39.396Z,0.13
2023-05-10T06:49:12.884Z,0.10
2023-05-10T06:50:46.391Z,0.10
2023-05-10T06:52:24.916Z,0.10
2023-05-10T06:54:01.790Z,0.13
2023-05-10T06:55:35.045Z,0.10
2023-05-10T06:57:16.131Z,0.10
2023-05-10T06:58:57.143Z,0.10
2023-05-10T07:00:30.330Z,0.10
2023-05-10T07:02:03.626Z,0.10
2023-05-10T07:03:36.991Z,0.10
2023-05-10T07:05:10.626Z,0.10
2023-05-10T07:06:44.207Z,0.10
2023-05-10T07:08:17.247Z,0.15
2023-05-10T07:09:53.632Z,0.10
2023-05-10T07:11:27.214Z,0.10
2023-05-10T07:13:00.703Z,0.10
2023-05-10T07:14:33.983Z,0.10
2023-05-10T07:16:07.811Z,0.10
2023-05-10T07:17:43.229Z,0.10
2023-05-10T07:19:18.233Z,0.15
2023-05-10T07:20:51.255Z,0.10
2023-05-10T07:22:24.481Z,0.10
2023-05-10T07:23:57.768Z,0.10
2023-05-10T07:25:31.331Z,0.10
2023-05-10T07:27:04.596Z,0.10
2023-05-10T07:28:41.736Z,0.10
2023-05-10T07:30:15.386Z,0.10
2023-05-10T07:31:48.793Z,0.10
2023-05-10T07:33:21.995Z,0.10
2023-05-10T07:34:55.877Z,0.10
2023-05-10T07:36:29.188Z,0.10
2023-05-10T07:38:03.155Z,0.10
2023-05-10T07:39:36.299Z,0.10
2023-05-10T07:41:09.785Z,0.10
2023-05-10T07:42:42.838Z,0.10
2023-05-10T07:44:16.279Z,0.00
2023-05-10T07:45:49.929Z,0.10
2023-05-10T07:47:23.680Z,0.10
2023-05-10T07:48:57.136Z,0.10
2023-05-10T07:50:30.771Z,0.10
2023-05-10T07:52:05.225Z,0.10
2023-05-10T07:53:39.384Z,0.10
2023-05-10T07:55:12.682Z,0.10
2023-05-10T07:56:48.829Z,0.10
2023-05-10T07:58:21.992Z,0.10
2023-05-10T07:59:55.228Z,0.00
2023-05-10T08:01:31.700Z,0.00
2023-05-10T08:03:05.359Z,0.10
2023-05-10T08:04:38.695Z,0.10
2023-05-10T08:06:12.010Z,0.00
2023-05-10T08:07:45.397Z,0.10
2023-05-10T08:09:19.422Z,0.03
2023-05-10T08:10:53.270Z,0.10
2023-05-10T08:12:26.665Z,0.00
2023-05-10T08:14:00.338Z,0.10
2023-05-10T08:15:33.693Z,0.10
2023-05-10T08:17:07.145Z,0.10
2023-05-10T08:18:41.302Z,0.10
2023-05-10T08:20:18.015Z,0.10
2023-05-10T08:21:51.250Z,0.00
2023-05-10T08:23:24.520Z,0.10
2023-05-10T08:24:57.737Z,0.10
2023-05-10T08:26:30.816Z,0.10
2023-05-10T08:28:03.990Z,0.10
2023-05-10T08:29:49.502Z,0.10
2023-05-10T08:32:57.164Z,0.10
2023-05-10T08:34:32.723Z,0.10
2023-05-10T08:36:06.285Z,0.00
2023-05-10T08:37:40.571Z,0.10
2023-05-10T08:39:29.299Z,0.10
2023-05-10T08:41:05.087Z,0.10
2023-05-10T08:42:42.005Z,0.10
2023-05-10T08:44:16.381Z,0.10
2023-05-10T08:45:51.675Z,0.10
2023-05-10T08:47:26.631Z,0.00
2023-05-10T08:49:03.566Z,0.10
2023-05-10T08:50:42.400Z,0.10
2023-05-10T08:52:18.075Z,0.10
2023-05-10T08:53:51.690Z,0.10
2023-05-10T08:55:25.685Z,0.10
2023-05-10T08:56:58.732Z,0.10
2023-05-10T08:58:33.101Z,0.05
2023-05-10T09:00:07.225Z,0.10
2023-05-10T09:01:44.074Z,0.10
2023-05-10T09:03:18.438Z,0.10
2023-05-10T09:04:54.995Z,0.00
2023-05-10T09:06:30.142Z,0.10
2023-05-10T09:08:04.200Z,0.10
2023-05-10T09:09:41.811Z,0.10
2023-05-10T09:11:18.984Z,0.10
2023-05-10T09:12:53.439Z,0.10
2023-05-10T09:14:26.894Z,0.10
2023-05-10T09:16:09.887Z,0.10
2023-05-10T09:17:54.008Z,0.10
2023-05-10T09:19:27.572Z,0.10
2023-05-10T09:21:00.865Z,0.00
2023-05-10T09:22:34.991Z,0.10
2023-05-10T09:24:09.509Z,0.10
2023-05-10T09:25:45.541Z,0.10
2023-05-10T09:27:18.689Z,0.03
2023-05-10T09:29:00.791Z,0.00
2023-05-10T09:30:34.384Z,0.10
2023-05-10T09:32:07.714Z,0.10
2023-05-10T09:33:50.681Z,0.10
2023-05-10T09:35:29.900Z,0.10
2023-05-10T09:37:05.722Z,0.10
2023-05-10T09:38:52.707Z,0.10
2023-05-10T09:40:27.670Z,0.10
2023-05-10T09:42:07.961Z,0.10
2023-05-10T09:43:41.783Z,0.00
2023-05-10T09:45:15.412Z,0.10
2023-05-10T09:46:54.122Z,0.10
2023-05-10T09:48:27.283Z,0.10
2023-05-10T09:51:38.905Z,0.00
2023-05-10T09:53:20.513Z,0.10
2023-05-10T09:54:55.648Z,0.10
2023-05-10T09:56:40.429Z,0.10
2023-05-10T09:58:15.567Z,0.10
2023-05-10T09:59:52.453Z,0.10
2023-05-10T10:01:28.307Z,0.10
2023-05-10T10:03:02.093Z,0.10
2023-05-10T10:04:41.284Z,0.10
2023-05-10T10:06:29.592Z,0.10
2023-05-10T10:08:07.776Z,0.10
2023-05-10T10:09:41.575Z,0.10
2023-05-10T10:11:15.221Z,0.10
2023-05-10T10:12:48.546Z,0.10
2023-05-10T10:14:25.900Z,0.10
2023-05-10T10:15:59.752Z,0.10
2023-05-10T10:17:34.111Z,0.10
2023-05-10T10:19:08.248Z,0.10
2023-05-10T10:20:41.912Z,0.10
2023-05-10T10:22:15.244Z,0.10
2023-05-10T10:23:48.518Z,0.10
2023-05-10T10:25:25.972Z,0.10
2023-05-10T10:27:21.784Z,0.00
2023-05-10T10:29:25.244Z,0.10
2023-05-10T10:31:05.546Z,0.10
2023-05-10T10:33:16.499Z,0.10
2023-05-10T10:35:00.394Z,0.10
2023-05-10T10:36:35.267Z,0.10
2023-05-10T10:38:10.726Z,0.10
2023-05-10T10:39:43.768Z,0.08
2023-05-10T10:43:29.362Z,0.10
2023-05-10T10:45:15.597Z,0.00
2023-05-10T10:47:24.316Z,0.10
2023-05-10T10:49:13.015Z,0.00
2023-05-10T10:50:47.839Z,0.10
2023-05-10T10:52:39.829Z,0.10
2023-05-10T10:54:14.698Z,0.10
2023-05-10T10:55:49.590Z,0.10
2023-05-10T10:57:27.633Z,0.03
2023-05-10T10:59:01.577Z,0.10
2023-05-10T11:00:39.342Z,0.10
2023-05-10T11:02:36.372Z,0.10
2023-05-10T11:04:09.802Z,0.10
2023-05-10T11:05:47.954Z,0.10
2023-05-10T11:07:21.589Z,0.10
2023-05-10T11:08:54.860Z,0.10
2023-05-10T11:10:28.922Z,0.10
2023-05-10T11:12:09.578Z,0.10
2023-05-10T11:13:50.012Z,0.10
2023-05-10T11:15:31.852Z,0.10
2023-05-10T11:17:25.523Z,0.10
2023-05-10T11:19:03.949Z,0.10
2023-05-10T11:20:43.368Z,0.10
2023-05-10T11:22:16.710Z,0.10
2023-05-10T11:23:57.573Z,0.10
2023-05-10T11:25:33.204Z,0.10
2023-05-10T11:27:07.464Z,0.00
2023-05-10T11:28:48.169Z,0.00
2023-05-10T11:30:21.923Z,0.10
2023-05-10T11:31:59.454Z,0.10
2023-05-10T11:33:55.146Z,0.10
2023-05-10T11:35:30.047Z,0.10
2023-05-10T11:37:03.220Z,0.10
2023-05-10T11:38:36.530Z,0.10
2023-05-10T11:40:11.048Z,0.10
2023-05-10T11:41:44.284Z,0.00
2023-05-10T11:43:17.467Z,0.05
2023-05-10T11:44:50.637Z,0.00
2023-05-10T11:46:28.898Z,0.10
2023-05-10T11:48:03.630Z,0.10
2023-05-10T11:49:42.802Z,0.10
2023-05-10T11:51:26.725Z,0.00
2023-05-10T11:53:00.151Z,0.10
2023-05-10T11:54:36.355Z,0.00
2023-05-10T11:56:11.677Z,0.10
2023-05-10T11:57:47.343Z,0.10
2023-05-10T11:59:20.941Z,0.10
2023-05-10T12:00:57.372Z,0.08
2023-05-10T12:02:31.685Z,0.00
2023-05-10T12:04:05.272Z,0.10
2023-05-10T12:05:41.589Z,0.10
2023-05-10T12:07:19.122Z,0.10
2023-05-10T12:08:54.884Z,0.10
2023-05-10T12:10:28.671Z,0.10
2023-05-10T12:12:03.843Z,0.10
2023-05-10T12:13:42.019Z,0.10
2023-05-10T12:15:23.211Z,0.10
2023-05-10T12:16:58.814Z,0.08
2023-05-10T12:18:31.950Z,0.10
2023-05-10T12:20:34.633Z,0.00
2023-05-10T12:22:11.399Z,0.10
2023-05-10T12:23:47.265Z,0.00
2023-05-10T12:25:21.841Z,0.10
2023-05-10T12:28:46.611Z,0.10
2023-05-10T12:30:27.216Z,0.10
2023-05-10T12:32:01.602Z,0.00
2023-05-10T12:33:45.320Z,0.10
2023-05-10T12:35:18.852Z,0.10
2023-05-10T12:36:54.357Z,0.10
2023-05-10T12:38:30.856Z,0.10
2023-05-10T12:40:06.349Z,0.10
2023-05-10T12:41:40.897Z,0.10
2023-05-10T12:43:16.292Z,0.00
2023-05-10T12:44:49.509Z,0.00
2023-05-10T12:46:22.676Z,0.10
2023-05-10T12:47:56.393Z,0.10
2023-05-10T12:49:29.686Z,0.10
2023-05-10T12:51:04.073Z,0.10
2023-05-10T12:52:37.591Z,0.10
2023-05-10T12:54:11.279Z,0.10
2023-05-10T12:55:45.376Z,0.10
2023-05-10T12:57:18.644Z,0.10
2023-05-10T12:58:52.368Z,0.10
2023-05-10T13:00:25.906Z,0.10
2023-05-10T13:01:59.615Z,0.10
2023-05-10T13:03:33.495Z,0.10
2023-05-10T13:05:07.432Z,0.05
2023-05-10T13:06:40.999Z,0.10
2023-05-10T13:08:14.123Z,0.10
2023-05-10T13:09:47.393Z,0.10
2023-05-10T13:11:22.342Z,0.10
2023-05-10T13:12:56.034Z,0.10
2023-05-10T13:14:29.671Z,0.10
2023-05-10T13:16:03.182Z,0.10
2023-05-10T13:17:36.363Z,0.00
2023-05-10T13:19:09.877Z,0.10
2023-05-10T13:20:44.396Z,0.10
2023-05-10T13:22:25.600Z,0.10
2023-05-10T13:24:07.263Z,0.10
2023-05-10T13:25:40.880Z,0.10
2023-05-10T13:27:14.274Z,0.03
2023-05-10T13:28:47.588Z,0.10
2023-05-10T13:30:20.828Z,0.10
2023-05-10T13:31:54.517Z,0.10
2023-05-10T13:33:27.829Z,0.10
2023-05-10T13:35:01.028Z,0.00
2023-05-10T13:36:34.455Z,0.10
2023-05-10T13:38:09.350Z,0.10
2023-05-10T13:39:42.674Z,0.10
2023-05-10T13:41:15.972Z,0.10
2023-05-10T13:42:49.244Z,0.10
2023-05-10T13:44:22.939Z,0.10
2023-05-10T13:45:56.220Z,0.10
2023-05-10T13:47:29.672Z,0.10
2023-05-10T13:49:03.442Z,0.10
2023-05-10T13:50:37.203Z,0.00
2023-05-10T13:52:11.383Z,0.10
2023-05-10T13:53:44.455Z,0.10
2023-05-10T13:55:17.861Z,0.10
2023-05-10T13:56:52.869Z,0.10
2023-05-10T13:58:26.054Z,0.10
2023-05-10T13:59:59.130Z,0.10
2023-05-10T14:01:32.669Z,0.10
2023-05-10T14:03:08.157Z,0.10
2023-05-10T14:04:41.510Z,0.10
2023-05-10T14:06:14.634Z,0.10
2023-05-10T14:07:48.041Z,0.10
2023-05-10T14:09:21.899Z,0.10
2023-05-10T14:10:55.251Z,0.10
2023-05-10T14:12:29.124Z,0.10
2023-05-10T14:14:02.638Z,0.10
2023-05-10T14:15:36.157Z,0.10
2023-05-10T14:17:11.444Z,0.10
2023-05-10T14:18:45.599Z,0.10
2023-05-10T14:20:18.805Z,0.05
2023-05-10T14:21:53.398Z,0.10
2023-05-10T14:23:27.053Z,0.10
2023-05-10T14:25:00.246Z,0.10
2023-05-10T14:26:33.732Z,0.10
2023-05-10T14:28:07.676Z,0.10
2023-05-10T14:29:41.031Z,0.10
2023-05-10T14:31:15.491Z,0.10
2023-05-10T14:32:48.709Z,0.10
2023-05-10T14:34:22.342Z,0.10
2023-05-10T14:35:58.126Z,0.10
2023-05-10T14:37:31.416Z,0.10
2023-05-10T14:39:05.311Z,0.10
2023-05-10T14:40:38.881Z,0.10
2023-05-10T14:42:11.926Z,0.10
2023-05-10T14:43:45.407Z,0.10
2023-05-10T14:45:21.855Z,0.10
2023-05-10T14:46:55.247Z,0.10
2023-05-10T14:48:28.415Z,0.03
2023-05-10T14:50:01.683Z,0.10
2023-05-10T14:51:34.980Z,0.10
2023-05-10T14:53:08.510Z,0.10
2023-05-10T14:54:41.912Z,0.10
2023-05-10T14:56:14.916Z,0.10
2023-05-10T14:57:48.866Z,0.10
2023-05-10T14:59:22.466Z,0.10
2023-05-10T15:00:56.298Z,0.00
2023-05-10T15:02:30.273Z,0.10
2023-05-10T15:04:05.135Z,0.10
2023-05-10T15:05:39.319Z,0.10
2023-05-10T15:07:15.742Z,0.10
2023-05-10T15:08:48.860Z,0.10
2023-05-10T15:10:22.032Z,0.10
2023-05-10T15:11:56.340Z,0.10
2023-05-10T15:13:29.628Z,0.10
2023-05-10T15:15:03.456Z,0.10
2023-05-10T15:16:37.118Z,0.10
2023-05-10T15:18:11.593Z,0.10
2023-05-10T15:19:44.856Z,0.10
2023-05-10T15:21:17.970Z,0.10
2023-05-10T15:22:51.245Z,0.10
2023-05-10T15:24:24.750Z,0.10
2023-05-10T15:25:58.464Z,0.10
2023-05-10T15:27:31.598Z,0.10
2023-05-10T15:29:04.952Z,0.10
2023-05-10T15:30:38.252Z,0.10
2023-05-10T15:32:11.655Z,0.10
2023-05-10T15:33:45.019Z,0.10
2023-05-10T15:35:19.024Z,0.10
2023-05-10T15:36:52.366Z,0.10
2023-05-10T15:38:25.394Z,0.10
2023-05-10T15:40:05.085Z,0.10
2023-05-10T15:41:39.574Z,0.10
2023-05-10T15:43:12.949Z,0.10
2023-05-10T15:44:46.299Z,0.10
2023-05-10T15:46:19.591Z,0.10
2023-05-10T15:47:52.859Z,0.10
2023-05-10T15:49:26.146Z,0.10
2023-05-10T15:50:59.945Z,0.10
2023-05-10T15:52:33.657Z,0.10
2023-05-10T15:54:08.427Z,0.10
2023-05-10T15:55:41.971Z,0.10
2023-05-10T15:57:15.212Z,0.10
2023-05-10T15:58:48.518Z,0.10
2023-05-10T16:00:21.862Z,0.10
2023-05-10T16:01:55.105Z,0.15
2023-05-10T16:03:28.680Z,0.10
2023-05-10T16:05:02.175Z,0.10
2023-05-10T16:06:38.251Z,0.10
2023-05-10T16:08:11.581Z,0.10
2023-05-10T16:09:44.840Z,0.10
2023-05-10T16:11:17.992Z,0.10
2023-05-10T16:12:51.375Z,0.10
2023-05-10T16:14:25.229Z,0.10
2023-05-10T16:15:58.638Z,0.10
2023-05-10T16:17:32.604Z,0.10
2023-05-10T16:19:06.034Z,0.15
2023-05-10T16:20:39.386Z,0.10
2023-05-10T16:22:12.497Z,0.10
2023-05-10T16:23:46.921Z,0.10
2023-05-10T16:25:20.453Z,0.10
2023-05-10T16:26:53.828Z,0.10
2023-05-10T16:28:27.172Z,0.10
2023-05-10T16:30:00.718Z,0.10
2023-05-10T16:31:34.637Z,0.10
2023-05-10T16:33:08.460Z,0.10
2023-05-10T16:34:42.114Z,0.10
2023-05-10T16:36:15.408Z,0.10
2023-05-10T16:37:48.794Z,0.10
2023-05-10T16:39:22.185Z,0.10
2023-05-10T16:40:57.827Z,0.20
2023-05-10T16:42:31.143Z,0.20
2023-05-10T16:44:04.765Z,0.20
2023-05-10T16:45:38.008Z,0.10
2023-05-10T16:47:11.239Z,0.20
2023-05-10T16:48:44.496Z,0.10
2023-05-10T16:50:17.837Z,0.10
2023-05-10T16:51:50.991Z,0.10
2023-05-10T16:53:24.280Z,0.10
2023-05-10T16:54:57.563Z,0.17
2023-05-10T16:56:30.955Z,0.10
2023-05-10T16:58:04.245Z,0.10
2023-05-10T16:59:37.888Z,0.20
2023-05-10T17:01:11.438Z,0.17
2023-05-10T17:02:44.913Z,0.13
2023-05-10T17:04:18.810Z,0.10
2023-05-10T17:05:52.287Z,0.20
2023-05-10T17:07:26.357Z,0.10
2023-05-10T17:09:01.515Z,0.10
2023-05-10T17:10:35.111Z,0.10
2023-05-10T17:12:07.993Z,0.20
2023-05-10T17:13:41.493Z,0.10
2023-05-10T17:15:16.945Z,0.13
2023-05-10T17:16:53.215Z,0.20
2023-05-10T17:18:27.118Z,0.20
2023-05-10T17:20:01.001Z,0.20
2023-05-10T17:21:34.234Z,0.17
2023-05-10T17:23:07.567Z,0.20
2023-05-10T17:24:41.135Z,0.13
2023-05-10T17:26:14.178Z,0.20
2023-05-10T17:27:47.249Z,0.10
2023-05-10T17:29:20.437Z,0.13
2023-05-10T17:30:58.123Z,0.20
2023-05-10T17:32:31.482Z,0.20
2023-05-10T17:34:05.870Z,0.10
2023-05-10T17:35:39.075Z,0.20
2023-05-10T17:37:12.543Z,0.20
2023-05-10T17:38:45.572Z,0.17
2023-05-10T17:40:18.898Z,0.10
2023-05-10T17:41:53.283Z,0.20
2023-05-10T17:43:26.655Z,0.17
2023-05-10T17:45:00.007Z,0.20
2023-05-10T17:46:33.912Z,0.20
2023-05-10T17:48:08.297Z,0.20
2023-05-10T17:49:41.732Z,0.20
2023-05-10T17:51:15.746Z,0.20
2023-05-10T17:52:49.138Z,0.10
2023-05-10T17:54:25.231Z,0.20
2023-05-10T17:55:59.259Z,0.10
2023-05-10T17:57:32.558Z,0.17
2023-05-10T17:59:05.991Z,0.20
2023-05-10T18:00:40.459Z,0.10
2023-05-10T18:02:14.625Z,0.20
2023-05-10T18:03:49.971Z,0.20
2023-05-10T18:05:24.498Z,0.20
2023-05-10T18:07:02.005Z,0.20
2023-05-10T18:08:35.262Z,0.20
2023-05-10T18:10:09.202Z,0.20
2023-05-10T18:11:58.564Z,0.20
2023-05-10T18:13:32.605Z,0.20
2023-05-10T18:15:09.353Z,0.20
2023-05-10T18:16:43.546Z,0.20
2023-05-10T18:18:17.501Z,0.20
2023-05-10T18:19:50.715Z,0.20
2023-05-10T18:21:23.874Z,0.20
2023-05-10T18:22:58.162Z,0.28
2023-05-10T18:24:38.366Z,0.20
2023-05-10T18:26:13.668Z,0.20
2023-05-10T18:27:46.931Z,0.17
2023-05-10T18:29:20.070Z,0.20
2023-05-10T18:30:54.736Z,0.20
2023-05-10T18:32:28.327Z,0.20
2023-05-10T18:34:01.585Z,0.20
2023-05-10T18:35:37.821Z,0.20
2023-05-10T18:37:34.452Z,0.20
2023-05-10T18:39:31.232Z,0.20
2023-05-10T18:41:04.587Z,0.20
2023-05-10T18:42:37.784Z,0.20
2023-05-10T18:44:13.757Z,0.20
2023-05-10T18:45:51.320Z,0.20
2023-05-10T18:47:26.496Z,0.20
2023-05-10T18:49:01.125Z,0.20
2023-05-10T18:50:34.321Z,0.20
2023-05-10T18:53:40.945Z,0.20
2023-05-10T18:55:14.981Z,0.20
2023-05-10T18:56:50.130Z,0.20
2023-05-10T18:58:23.128Z,0.10
2023-05-10T18:59:56.382Z,0.20
2023-05-10T19:01:29.779Z,0.20
2023-05-10T19:03:02.893Z,0.20
2023-05-10T19:04:36.149Z,0.20
2023-05-10T19:06:09.720Z,0.20
2023-05-10T19:07:44.509Z,0.20
2023-05-10T19:09:20.328Z,0.20
2023-05-10T19:10:53.485Z,0.20
2023-05-10T19:12:26.854Z,0.20
2023-05-10T19:14:00.243Z,0.20
2023-05-10T19:15:33.843Z,0.20
2023-05-10T19:17:07.136Z,0.20
2023-05-10T19:18:40.716Z,0.20
2023-05-10T19:20:14.630Z,0.20
2023-05-10T19:21:48.555Z,0.20
2023-05-10T19:23:21.936Z,0.20
2023-05-10T19:24:55.362Z,0.20
2023-05-10T19:28:53.059Z,0.20
2023-05-10T19:30:27.068Z,0.20
2023-05-10T19:32:01.219Z,0.20
2023-05-10T19:33:34.667Z,0.20
2023-05-10T19:35:08.218Z,0.20
2023-05-10T19:36:41.485Z,0.20
2023-05-10T19:38:14.855Z,0.20
2023-05-10T19:39:48.092Z,0.20
2023-05-10T19:41:44.798Z,0.20
2023-05-10T19:43:18.138Z,0.20
2023-05-10T19:44:51.286Z,0.20
2023-05-10T19:46:24.606Z,0.20
2023-05-10T19:47:58.305Z,0.20
2023-05-10T19:49:31.953Z,0.20
2023-05-10T19:51:09.302Z,0.20
2023-05-10T19:52:43.431Z,0.20
2023-05-10T19:54:16.913Z,0.20
2023-05-10T19:55:50.214Z,0.20
2023-05-10T19:57:23.341Z,0.20
2023-05-10T19:58:56.533Z,0.20
2023-05-10T20:00:30.027Z,0.20
2023-05-10T20:02:03.363Z,0.20
2023-05-10T20:03:37.081Z,0.20
2023-05-10T20:05:10.775Z,0.20
2023-05-10T20:06:43.867Z,0.20
2023-05-10T20:08:17.269Z,0.20
2023-05-10T20:09:50.676Z,0.20
2023-05-10T20:11:33.158Z,0.20
2023-05-10T20:13:06.523Z,0.15
2023-05-10T20:14:40.071Z,0.20
2023-05-10T20:16:13.520Z,0.20
2023-05-10T20:17:47.850Z,0.20
2023-05-10T20:19:21.387Z,0.20
2023-05-10T20:21:00.246Z,0.20
2023-05-10T20:22:33.492Z,0.20
2023-05-10T20:24:09.434Z,0.20
2023-05-10T20:25:42.852Z,0.20
2023-05-10T20:27:16.062Z,0.20
2023-05-10T20:28:49.274Z,0.20
2023-05-10T20:30:23.229Z,0.20
2023-05-10T20:31:56.973Z,0.20
2023-05-10T20:33:30.580Z,0.20
2023-05-10T20:35:04.269Z,0.20
2023-05-10T20:36:37.655Z,0.20
2023-05-10T20:38:11.061Z,0.20
2023-05-10T20:39:44.836Z,0.20
2023-05-10T20:41:32.950Z,0.20
2023-05-10T20:43:06.640Z,0.20
2023-05-10T20:44:40.334Z,0.20
2023-05-10T20:46:13.853Z,0.20
2023-05-10T20:47:46.942Z,0.20
2023-05-10T20:49:20.345Z,0.20
2023-05-10T20:50:53.804Z,0.20
2023-05-10T20:52:26.920Z,0.20
2023-05-10T20:54:02.103Z,0.20
2023-05-10T20:55:35.278Z,0.20
2023-05-10T20:57:08.852Z,0.20
2023-05-10T20:58:42.040Z,0.20
2023-05-10T21:00:15.774Z,0.20
2023-05-10T21:01:48.997Z,0.20
2023-05-10T21:03:22.556Z,0.20
2023-05-10T21:04:57.868Z,0.20
2023-05-10T21:06:32.345Z,0.20
2023-05-10T21:08:05.635Z,0.30
2023-05-10T21:09:39.146Z,0.20
2023-05-10T21:11:12.506Z,0.20
2023-05-10T21:16:22.660Z,0.30
2023-05-10T21:17:56.191Z,0.20
2023-05-10T21:19:29.634Z,0.20
2023-05-10T21:21:03.101Z,0.20
2023-05-10T21:22:36.076Z,0.20
2023-05-10T21:24:09.357Z,0.20
2023-05-10T21:25:42.686Z,0.30